COOK1: Arkansas River Nr Coolidge, KS

                                SHEF ID:       COOK1     ARKANSAS R NR COOLIDGE, KS
STATION TYPE:
Regulating: Stage = 8.00, Flow = 2026

PRECIP STAGE STAGE(2) RIV-FLOW WTR-TEMP CONDUCT BAT-LOAD
in ft ft cfs F umho/cm volt
Ccp-Rev Ccp-Rev Ccp-Rev Ccp-Rev Ccp-Rev Ccp-Rev Ccp-Rev
(America/Chicago)
07/22 00:00 0.00 4.56 4.71 378 76.23 3305 12.95
07/22 01:00 0.00 4.56 4.68 378 75.74 3310 12.95
07/22 02:00 0.00 4.57 4.70 381 75.34 3321 12.89
07/22 03:00 0.00 4.56 4.72 378 74.91 3314 12.89
07/22 04:00 0.00 4.56 4.69 378 74.35 3305 12.89
07/22 05:00 0.00 4.56 4.69 378 73.72 3308 12.83
07/22 06:00 0.00 4.57 4.71 381 73.22 3305 12.83
07/22 07:00 0.00 4.57 4.74 381 72.63 3319 12.77
07/22 08:00 0.00 4.58 4.72 384 72.03 3337 12.83
07/22 09:00 0.00 4.58 4.73 384 71.69 3344 12.95
07/22 10:00 0.00 4.61 4.78 392 71.83 3346 13.42
07/22 11:00 0.00 4.62 4.77 394 72.45 3343 13.65
07/22 12:00 0.00 4.62 4.79 394 73.44 3337 13.71
07/22 13:00 0.00 4.65 4.78 402 74.64 3326 13.77
07/22 14:00 0.00 4.65 4.81 402 75.04 3319 13.53
07/22 15:00 0.18 4.63 4.79 397 75.34 3317 13.30
07/22 16:00 0.00 4.63 4.79 397 76.39 3316 13.42
07/22 17:00 0.00 4.63 4.78 397 77.25 3317 13.48
07/22 18:00 0.00 4.62 4.79 394 77.70 3296 13.30
07/22 19:00 0.00 4.60 4.74 389 77.83 3312 13.24
07/22 20:00 0.00 4.58 4.75 384 77.85 3310 13.18
07/22 21:00 0.00 4.60 4.76 389 77.63 3319 13.07
07/22 22:00 0.00 4.59 4.75 386 77.38 3346 13.00
07/22 23:00 ---- ---- ---- ---- ---- ---- ----
Data processed at Tue 23Jul2024 04:30 GMT

Parsing this webpage?

Checkout our new Data API! CWMSDataAPI (CDA)

Timeseries IDs (TSIDs)

TSIDs used from left to right in the data table
COOL.Precip-Inc.Total.1Hour.1Hour.Ccp-Rev
COOL.Stage.Inst.1Hour.0.Ccp-Rev
COOL.Stage-Alt.Inst.1Hour.0.Ccp-Rev
COOL.Flow.Inst.1Hour.0.Ccp-Rev
COOL.Temp-Water.Inst.1Hour.0.Ccp-Rev
COOL.Cond.Inst.1Hour.0.Ccp-Rev
COOL.Volt-Battery Load.Inst.1Hour.0.Ccp-Rev

                            

All information presented herein is the property of the government of the United States of America and may be revised or deleted at any time without prior notice. Dissemination of this information without the expressed written consent of the Public Affairs Office, Tulsa District U.S. Army Corps of Engineers is strictly prohibited. These data are gathered electronically and, as presented, have NOT undergone any form of quality control. These data are NOT guaranteed to be valid or correct.